sensor_id;sensor_type;location;lat;lon;timestamp;pressure;altitude;pressure_sealevel;temperature;humidity
70248;BME280;57641;51.416;5.506;2023-03-19T00:00:19;101174.09;;;16.29;60.71
70248;BME280;57641;51.416;5.506;2023-03-19T00:02:45;101178.47;;;16.30;60.68
70248;BME280;57641;51.416;5.506;2023-03-19T00:05:16;101180.81;;;16.33;60.70
70248;BME280;57641;51.416;5.506;2023-03-19T00:07:42;101187.47;;;16.37;60.20
70248;BME280;57641;51.416;5.506;2023-03-19T00:10:09;101178.41;;;16.38;60.20
70248;BME280;57641;51.416;5.506;2023-03-19T00:12:34;101184.78;;;16.37;60.25
70248;BME280;57641;51.416;5.506;2023-03-19T00:15:00;101178.41;;;16.38;60.06
70248;BME280;57641;51.416;5.506;2023-03-19T00:17:26;101180.06;;;16.39;60.42
70248;BME280;57641;51.416;5.506;2023-03-19T00:19:51;101181.72;;;16.40;60.46
70248;BME280;57641;51.416;5.506;2023-03-19T00:22:16;101177.84;;;16.42;60.31
70248;BME280;57641;51.416;5.506;2023-03-19T00:24:42;101183.56;;;16.39;60.31
70248;BME280;57641;51.416;5.506;2023-03-19T00:27:09;101180.03;;;16.24;60.61
70248;BME280;57641;51.416;5.506;2023-03-19T00:29:34;101188.38;;;16.29;60.69
70248;BME280;57641;51.416;5.506;2023-03-19T00:32:00;101193.75;;;16.29;60.83
70248;BME280;57641;51.416;5.506;2023-03-19T00:34:26;101185.69;;;16.29;60.86
70248;BME280;57641;51.416;5.506;2023-03-19T00:36:52;101179.28;;;16.30;60.75
70248;BME280;57641;51.416;5.506;2023-03-19T00:39:17;101185.22;;;16.26;60.53
70248;BME280;57641;51.416;5.506;2023-03-19T00:41:44;101186.78;;;16.20;60.71
70248;BME280;57641;51.416;5.506;2023-03-19T00:44:16;101196.72;;;16.20;60.85
70248;BME280;57641;51.416;5.506;2023-03-19T00:46:43;101195.69;;;16.21;60.43
70248;BME280;57641;51.416;5.506;2023-03-19T00:49:09;101189.03;;;16.17;61.13
70248;BME280;57641;51.416;5.506;2023-03-19T00:51:34;101192.44;;;16.11;61.04
70248;BME280;57641;51.416;5.506;2023-03-19T00:54:00;101185.84;;;16.13;61.05
70248;BME280;57641;51.416;5.506;2023-03-19T00:56:26;101192.25;;;16.12;61.20
70248;BME280;57641;51.416;5.506;2023-03-19T00:58:51;101193.38;;;16.18;60.96
70248;BME280;57641;51.416;5.506;2023-03-19T01:01:17;101195.25;;;16.17;60.73
70248;BME280;57641;51.416;5.506;2023-03-19T01:03:46;101192.53;;;16.17;60.90
70248;BME280;57641;51.416;5.506;2023-03-19T01:06:12;101190.69;;;16.18;60.41
70248;BME280;57641;51.416;5.506;2023-03-19T01:08:38;101196.06;;;16.18;60.51
70248;BME280;57641;51.416;5.506;2023-03-19T01:11:06;101201.69;;;16.08;60.33
70248;BME280;57641;51.416;5.506;2023-03-19T01:13:32;101195.97;;;16.11;60.98
70248;BME280;57641;51.416;5.506;2023-03-19T01:15:57;101193.44;;;16.10;60.77
70248;BME280;57641;51.416;5.506;2023-03-19T01:18:23;101198.16;;;16.08;60.73
70248;BME280;57641;51.416;5.506;2023-03-19T01:20:48;101192.47;;;16.02;60.87
70248;BME280;57641;51.416;5.506;2023-03-19T01:23:13;101193.53;;;16.01;60.99
70248;BME280;57641;51.416;5.506;2023-03-19T01:25:39;101192.25;;;15.89;60.91
70248;BME280;57641;51.416;5.506;2023-03-19T01:28:05;101192.25;;;15.89;61.26
70248;BME280;57641;51.416;5.506;2023-03-19T01:30:32;101190.44;;;15.82;61.50
70248;BME280;57641;51.416;5.506;2023-03-19T01:32:57;101198.53;;;15.59;61.57
70248;BME280;57641;51.416;5.506;2023-03-19T01:35:23;101191.38;;;15.74;61.89
70248;BME280;57641;51.416;5.506;2023-03-19T01:37:48;101197.44;;;15.68;62.14
70248;BME280;57641;51.416;5.506;2023-03-19T01:40:14;101194.06;;;15.74;61.89
70248;BME280;57641;51.416;5.506;2023-03-19T01:42:51;101190.06;;;15.70;61.93
70248;BME280;57641;51.416;5.506;2023-03-19T01:45:39;101194.75;;;15.68;62.02
70248;BME280;57641;51.416;5.506;2023-03-19T01:48:11;101189.00;;;15.71;61.84
70248;BME280;57641;51.416;5.506;2023-03-19T01:50:43;101184.19;;;15.67;61.64
70248;BME280;57641;51.416;5.506;2023-03-19T01:53:11;101182.28;;;15.75;61.39
70248;BME280;57641;51.416;5.506;2023-03-19T01:55:38;101188.97;;;15.79;61.19
70248;BME280;57641;51.416;5.506;2023-03-19T01:58:06;101192.31;;;15.81;61.20
70248;BME280;57641;51.416;5.506;2023-03-19T02:00:33;101193.38;;;15.72;61.37
70248;BME280;57641;51.416;5.506;2023-03-19T02:03:03;101193.00;;;15.44;62.17
70248;BME280;57641;51.416;5.506;2023-03-19T02:05:31;101193.53;;;15.40;62.51
70248;BME280;57641;51.416;5.506;2023-03-19T02:08:00;101197.91;;;15.41;62.47
70248;BME280;57641;51.416;5.506;2023-03-19T02:10:28;101194.59;;;15.31;62.99
70248;BME280;57641;51.416;5.506;2023-03-19T02:12:55;101193.19;;;15.43;62.70
70248;BME280;57641;51.416;5.506;2023-03-19T02:15:21;101186.81;;;15.44;62.80
70248;BME280;57641;51.416;5.506;2023-03-19T02:17:46;101196.53;;;15.53;62.59
70248;BME280;57641;51.416;5.506;2023-03-19T02:23:44;101192.50;;;15.49;62.39
70248;BME280;57641;51.416;5.506;2023-03-19T02:26:31;101187.53;;;15.38;62.76
70248;BME280;57641;51.416;5.506;2023-03-19T02:28:57;101189.16;;;15.39;62.81
70248;BME280;57641;51.416;5.506;2023-03-19T02:31:23;101187.00;;;15.34;62.53
70248;BME280;57641;51.416;5.506;2023-03-19T02:33:57;101190.69;;;15.41;63.05
70248;BME280;57641;51.416;5.506;2023-03-19T02:36:27;101193.44;;;15.33;63.04
70248;BME280;57641;51.416;5.506;2023-03-19T02:38:56;101188.88;;;15.34;63.23
70248;BME280;57641;51.416;5.506;2023-03-19T02:41:23;101196.38;;;15.46;62.82
70248;BME280;57641;51.416;5.506;2023-03-19T02:43:50;101191.81;;;15.47;62.64
70248;BME280;57641;51.416;5.506;2023-03-19T02:46:17;101189.81;;;15.49;62.34
70248;BME280;57641;51.416;5.506;2023-03-19T02:48:46;101198.88;;;15.48;62.58
70248;BME280;57641;51.416;5.506;2023-03-19T02:51:11;101199.72;;;15.48;62.55
70248;BME280;57641;51.416;5.506;2023-03-19T02:53:37;101200.97;;;15.30;62.89
70248;BME280;57641;51.416;5.506;2023-03-19T02:56:04;101207.47;;;15.43;63.10
70248;BME280;57641;51.416;5.506;2023-03-19T02:58:30;101210.56;;;15.32;63.22
70248;BME280;57641;51.416;5.506;2023-03-19T03:00:55;101209.97;;;15.45;63.09
70248;BME280;57641;51.416;5.506;2023-03-19T03:03:21;101208.78;;;15.47;63.00
70248;BME280;57641;51.416;5.506;2023-03-19T03:05:46;101209.25;;;15.51;63.18
70248;BME280;57641;51.416;5.506;2023-03-19T03:08:12;101205.53;;;15.60;62.85
70248;BME280;57641;51.416;5.506;2023-03-19T03:10:43;101203.16;;;15.65;62.55
70248;BME280;57641;51.416;5.506;2023-03-19T03:13:09;101211.91;;;15.67;62.68
70248;BME280;57641;51.416;5.506;2023-03-19T03:15:35;101213.75;;;15.67;62.46
70248;BME280;57641;51.416;5.506;2023-03-19T03:18:00;101209.75;;;15.62;62.30
70248;BME280;57641;51.416;5.506;2023-03-19T03:20:26;101205.34;;;15.70;62.55
70248;BME280;57641;51.416;5.506;2023-03-19T03:22:51;101216.25;;;15.68;62.15
70248;BME280;57641;51.416;5.506;2023-03-19T03:25:17;101212.88;;;15.74;62.24
70248;BME280;57641;51.416;5.506;2023-03-19T03:27:46;101207.28;;;15.76;61.96
70248;BME280;57641;51.416;5.506;2023-03-19T03:30:12;101204.72;;;15.82;62.08
70248;BME280;57641;51.416;5.506;2023-03-19T03:32:40;101210.13;;;15.82;61.85
70248;BME280;57641;51.416;5.506;2023-03-19T03:35:08;101213.63;;;15.83;61.76
70248;BME280;57641;51.416;5.506;2023-03-19T03:37:34;101217.72;;;15.79;61.71
70248;BME280;57641;51.416;5.506;2023-03-19T03:40:01;101213.34;;;15.78;61.68
70248;BME280;57641;51.416;5.506;2023-03-19T03:42:31;101222.78;;;15.74;61.77
70248;BME280;57641;51.416;5.506;2023-03-19T03:44:57;101221.47;;;15.70;61.81
70248;BME280;57641;51.416;5.506;2023-03-19T03:47:31;101218.88;;;15.76;62.00
70248;BME280;57641;51.416;5.506;2023-03-19T03:49:57;101218.94;;;15.68;62.10
70248;BME280;57641;51.416;5.506;2023-03-19T03:52:23;101236.63;;;15.62;61.73
70248;BME280;57641;51.416;5.506;2023-03-19T03:54:48;101233.94;;;15.62;62.20
70248;BME280;57641;51.416;5.506;2023-03-19T03:57:13;101228.56;;;15.62;62.22
70248;BME280;57641;51.416;5.506;2023-03-19T03:59:42;101240.47;;;15.60;62.35
70248;BME280;57641;51.416;5.506;2023-03-19T04:02:08;101233.00;;;15.39;62.91
70248;BME280;57641;51.416;5.506;2023-03-19T04:04:33;101234.81;;;15.47;62.72
70248;BME280;57641;51.416;5.506;2023-03-19T04:06:58;101239.75;;;15.35;63.02
70248;BME280;57641;51.416;5.506;2023-03-19T04:09:24;101235.03;;;15.37;63.09
70248;BME280;57641;51.416;5.506;2023-03-19T04:11:50;101240.94;;;15.33;62.86
70248;BME280;57641;51.416;5.506;2023-03-19T04:14:16;101237.22;;;15.34;63.27
70248;BME280;57641;51.416;5.506;2023-03-19T04:16:42;101235.53;;;15.41;62.96
70248;BME280;57641;51.416;5.506;2023-03-19T04:19:08;101232.84;;;15.41;62.98
70248;BME280;57641;51.416;5.506;2023-03-19T04:21:36;101231.28;;;15.46;63.00
70248;BME280;57641;51.416;5.506;2023-03-19T04:24:02;101235.19;;;15.44;62.65
70248;BME280;57641;51.416;5.506;2023-03-19T04:26:27;101232.47;;;15.52;62.59
70248;BME280;57641;51.416;5.506;2023-03-19T04:28:53;101234.63;;;15.56;62.22
70248;BME280;57641;51.416;5.506;2023-03-19T04:31:18;101234.09;;;15.61;62.00
70248;BME280;57641;51.416;5.506;2023-03-19T04:33:44;101237.78;;;15.60;61.53
70248;BME280;57641;51.416;5.506;2023-03-19T04:36:09;101237.28;;;15.65;61.42
70248;BME280;57641;51.416;5.506;2023-03-19T04:38:35;101233.41;;;15.67;60.98
70248;BME280;57641;51.416;5.506;2023-03-19T04:41:00;101240.16;;;15.63;60.80
70248;BME280;57641;51.416;5.506;2023-03-19T04:43:26;101240.16;;;15.63;60.67
70248;BME280;57641;51.416;5.506;2023-03-19T04:45:53;101234.94;;;15.61;60.17
70248;BME280;57641;51.416;5.506;2023-03-19T04:48:18;101244.38;;;15.57;59.96
70248;BME280;57641;51.416;5.506;2023-03-19T04:50:44;101240.19;;;15.55;59.87
70248;BME280;57641;51.416;5.506;2023-03-19T04:53:12;101242.88;;;15.47;59.99
70248;BME280;57641;51.416;5.506;2023-03-19T04:55:37;101247.09;;;15.41;60.24
70248;BME280;57641;51.416;5.506;2023-03-19T04:58:03;101255.34;;;15.40;60.14
70248;BME280;57641;51.416;5.506;2023-03-19T05:00:28;101252.34;;;15.35;60.50
70248;BME280;57641;51.416;5.506;2023-03-19T05:02:56;101261.06;;;15.37;60.81
70248;BME280;57641;51.416;5.506;2023-03-19T05:05:21;101264.09;;;15.34;61.51
70248;BME280;57641;51.416;5.506;2023-03-19T05:07:47;101264.59;;;15.37;61.39
70248;BME280;57641;51.416;5.506;2023-03-19T05:10:12;101258.06;;;15.32;61.52
70248;BME280;57641;51.416;5.506;2023-03-19T05:12:38;101265.59;;;15.36;61.55
70248;BME280;57641;51.416;5.506;2023-03-19T05:15:03;101267.28;;;15.37;61.50
70248;BME280;57641;51.416;5.506;2023-03-19T05:17:32;101265.25;;;15.39;61.47
70248;BME280;57641;51.416;5.506;2023-03-19T05:20:00;101262.56;;;15.39;61.24
70248;BME280;57641;51.416;5.506;2023-03-19T05:22:26;101268.78;;;15.40;60.99
70248;BME280;57641;51.416;5.506;2023-03-19T05:24:56;101269.13;;;15.37;61.16
70248;BME280;57641;51.416;5.506;2023-03-19T05:27:22;101270.13;;;15.36;60.79
70248;BME280;57641;51.416;5.506;2023-03-19T05:29:47;101267.44;;;15.36;61.04
70248;BME280;57641;51.416;5.506;2023-03-19T05:32:13;101268.66;;;15.33;61.00
70248;BME280;57641;51.416;5.506;2023-03-19T05:34:38;101270.66;;;15.31;61.37
70248;BME280;57641;51.416;5.506;2023-03-19T05:37:04;101272.03;;;15.27;62.06
70248;BME280;57641;51.416;5.506;2023-03-19T05:39:29;101272.88;;;15.28;61.97
70248;BME280;57641;51.416;5.506;2023-03-19T05:41:56;101282.56;;;15.29;61.67
70248;BME280;57641;51.416;5.506;2023-03-19T05:44:21;101281.94;;;15.27;61.94
70248;BME280;57641;51.416;5.506;2023-03-19T05:46:47;101276.56;;;15.18;62.80
70248;BME280;57641;51.416;5.506;2023-03-19T05:49:12;101288.66;;;15.23;62.46
70248;BME280;57641;51.416;5.506;2023-03-19T05:51:38;101281.25;;;15.25;62.76
70248;BME280;57641;51.416;5.506;2023-03-19T05:54:05;101289.78;;;15.28;62.76
70248;BME280;57641;51.416;5.506;2023-03-19T05:56:31;101290.16;;;15.33;62.68
70248;BME280;57641;51.416;5.506;2023-03-19T05:58:57;101292.84;;;15.33;62.53
70248;BME280;57641;51.416;5.506;2023-03-19T06:01:22;101303.13;;;15.13;63.23
70248;BME280;57641;51.416;5.506;2023-03-19T06:03:48;101301.59;;;15.19;63.35
70248;BME280;57641;51.416;5.506;2023-03-19T06:06:13;101299.91;;;15.18;63.02
70248;BME280;57641;51.416;5.506;2023-03-19T06:08:38;101300.75;;;15.18;63.04
70248;BME280;57641;51.416;5.506;2023-03-19T06:11:04;101304.28;;;15.19;63.21
70248;BME280;57641;51.416;5.506;2023-03-19T06:13:30;101304.78;;;15.14;63.00
70248;BME280;57641;51.416;5.506;2023-03-19T06:15:56;101318.75;;;15.02;63.37
70248;BME280;57641;51.416;5.506;2023-03-19T06:18:21;101313.03;;;14.97;63.80
70248;BME280;57641;51.416;5.506;2023-03-19T06:20:47;101314.41;;;14.93;64.06
70248;BME280;57641;51.416;5.506;2023-03-19T06:23:13;101320.94;;;14.98;63.83
70248;BME280;57641;51.416;5.506;2023-03-19T06:25:39;101321.44;;;14.94;63.83
70248;BME280;57641;51.416;5.506;2023-03-19T06:28:04;101324.28;;;14.92;64.05
70248;BME280;57641;51.416;5.506;2023-03-19T06:30:31;101328.66;;;14.93;64.12
70248;BME280;57641;51.416;5.506;2023-03-19T06:32:57;101336.72;;;14.93;63.83
70248;BME280;57641;51.416;5.506;2023-03-19T06:35:23;101329.03;;;14.74;64.70
70248;BME280;57641;51.416;5.506;2023-03-19T06:37:48;101328.84;;;14.75;64.95
70248;BME280;57641;51.416;5.506;2023-03-19T06:40:14;101329.53;;;14.61;65.39
70248;BME280;57641;51.416;5.506;2023-03-19T06:42:46;101337.41;;;14.71;65.07
70248;BME280;57641;51.416;5.506;2023-03-19T06:45:13;101335.56;;;14.63;64.94
70248;BME280;57641;51.416;5.506;2023-03-19T06:47:46;101336.41;;;14.64;64.81
70248;BME280;57641;51.416;5.506;2023-03-19T06:50:13;101339.09;;;14.64;65.24
70248;BME280;57641;51.416;5.506;2023-03-19T06:52:41;101347.97;;;14.72;64.79
70248;BME280;57641;51.416;5.506;2023-03-19T06:55:07;101350.00;;;14.78;64.66
70248;BME280;57641;51.416;5.506;2023-03-19T06:57:34;101345.97;;;14.83;64.87
70248;BME280;57641;51.416;5.506;2023-03-19T07:00:01;101349.47;;;14.91;64.18
70248;BME280;57641;51.416;5.506;2023-03-19T07:02:27;101345.63;;;14.94;63.89
70248;BME280;57641;51.416;5.506;2023-03-19T07:04:52;101346.94;;;14.98;63.25
70248;BME280;57641;51.416;5.506;2023-03-19T07:07:18;101353.84;;;14.92;63.13
70248;BME280;57641;51.416;5.506;2023-03-19T07:09:44;101354.50;;;14.86;63.85
70248;BME280;57641;51.416;5.506;2023-03-19T07:12:10;101360.72;;;14.87;64.32
70248;BME280;57641;51.416;5.506;2023-03-19T07:14:35;101364.91;;;14.89;64.34
70248;BME280;57641;51.416;5.506;2023-03-19T07:17:01;101363.09;;;14.90;64.10
70248;BME280;57641;51.416;5.506;2023-03-19T07:19:26;101364.75;;;14.83;64.13
70248;BME280;57641;51.416;5.506;2023-03-19T07:21:52;101373.81;;;14.90;64.48
70248;BME280;57641;51.416;5.506;2023-03-19T07:24:17;101366.59;;;14.82;64.46
70248;BME280;57641;51.416;5.506;2023-03-19T07:26:43;101370.28;;;14.89;64.26
70248;BME280;57641;51.416;5.506;2023-03-19T07:29:09;101366.75;;;14.80;64.83
70248;BME280;57641;51.416;5.506;2023-03-19T07:31:35;101377.50;;;14.89;64.52
70248;BME280;57641;51.416;5.506;2023-03-19T07:34:01;101382.38;;;14.93;64.34
70248;BME280;57641;51.416;5.506;2023-03-19T07:36:27;101387.22;;;14.98;63.94
70248;BME280;57641;51.416;5.506;2023-03-19T07:38:52;101392.78;;;14.96;64.56
70248;BME280;57641;51.416;5.506;2023-03-19T07:41:17;101385.72;;;15.03;64.32
70248;BME280;57641;51.416;5.506;2023-03-19T07:43:43;101390.44;;;15.01;64.47
70248;BME280;57641;51.416;5.506;2023-03-19T07:46:09;101393.59;;;15.05;64.68
70248;BME280;57641;51.416;5.506;2023-03-19T07:48:36;101386.38;;;15.13;64.69
70248;BME280;57641;51.416;5.506;2023-03-19T07:51:01;101384.69;;;15.12;64.96
70248;BME280;57641;51.416;5.506;2023-03-19T07:53:27;101395.75;;;15.17;64.77
70248;BME280;57641;51.416;5.506;2023-03-19T07:55:52;101393.75;;;15.28;64.89
70248;BME280;57641;51.416;5.506;2023-03-19T07:58:17;101388.19;;;15.29;64.66
70248;BME280;57641;51.416;5.506;2023-03-19T08:00:43;101399.97;;;15.20;65.28
70248;BME280;57641;51.416;5.506;2023-03-19T08:03:12;101399.44;;;15.41;65.29
70248;BME280;57641;51.416;5.506;2023-03-19T08:05:38;101392.06;;;15.27;64.03
70248;BME280;57641;51.416;5.506;2023-03-19T08:08:04;101396.75;;;15.41;63.32
70248;BME280;57641;51.416;5.506;2023-03-19T08:10:30;101400.22;;;15.49;63.50
70248;BME280;57641;51.416;5.506;2023-03-19T08:12:56;101394.91;;;15.25;61.61
70248;BME280;57641;51.416;5.506;2023-03-19T08:15:21;101394.41;;;15.38;60.96
70248;BME280;57641;51.416;5.506;2023-03-19T08:17:47;101406.16;;;15.53;61.28
70248;BME280;57641;51.416;5.506;2023-03-19T08:20:14;101399.44;;;15.49;60.26
70248;BME280;57641;51.416;5.506;2023-03-19T08:22:41;101409.44;;;15.79;59.47
70248;BME280;57641;51.416;5.506;2023-03-19T08:25:09;101403.75;;;15.74;59.64
70248;BME280;57641;51.416;5.506;2023-03-19T08:27:35;101412.41;;;15.92;58.63
70248;BME280;57641;51.416;5.506;2023-03-19T08:30:05;101411.31;;;16.10;58.32
70248;BME280;57641;51.416;5.506;2023-03-19T08:32:32;101413.63;;;15.82;58.10
70248;BME280;57641;51.416;5.506;2023-03-19T08:34:58;101420.31;;;15.94;58.21
70248;BME280;57641;51.416;5.506;2023-03-19T08:37:25;101422.78;;;16.03;57.39
70248;BME280;57641;51.416;5.506;2023-03-19T08:39:50;101422.50;;;15.90;58.30
70248;BME280;57641;51.416;5.506;2023-03-19T08:42:17;101415.28;;;15.83;58.79
70248;BME280;57641;51.416;5.506;2023-03-19T08:44:44;101428.63;;;15.60;58.55
70248;BME280;57641;51.416;5.506;2023-03-19T08:47:09;101417.84;;;15.76;58.99
70248;BME280;57641;51.416;5.506;2023-03-19T08:49:35;101432.59;;;15.88;57.99
70248;BME280;57641;51.416;5.506;2023-03-19T08:52:04;101435.06;;;15.98;58.21
70248;BME280;57641;51.416;5.506;2023-03-19T08:54:30;101434.84;;;16.08;56.27
70248;BME280;57641;51.416;5.506;2023-03-19T08:56:56;101434.06;;;15.99;56.73
70248;BME280;57641;51.416;5.506;2023-03-19T08:59:21;101443.34;;;15.96;55.02
70248;BME280;57641;51.416;5.506;2023-03-19T09:01:51;101436.44;;;15.94;56.57
70248;BME280;57641;51.416;5.506;2023-03-19T09:04:19;101446.84;;;15.97;55.70
70248;BME280;57641;51.416;5.506;2023-03-19T09:06:44;101439.53;;;15.67;57.11
70248;BME280;57641;51.416;5.506;2023-03-19T09:09:10;101450.28;;;15.75;56.71
70248;BME280;57641;51.416;5.506;2023-03-19T09:11:35;101446.97;;;16.03;55.95
70248;BME280;57641;51.416;5.506;2023-03-19T09:14:01;101451.97;;;16.15;55.61
70248;BME280;57641;51.416;5.506;2023-03-19T09:16:29;101451.97;;;16.15;55.37
70248;BME280;57641;51.416;5.506;2023-03-19T09:18:55;101463.81;;;16.36;55.58
70248;BME280;57641;51.416;5.506;2023-03-19T09:21:21;101460.97;;;16.38;55.06
70248;BME280;57641;51.416;5.506;2023-03-19T09:23:49;101456.81;;;16.58;55.44
70248;BME280;57641;51.416;5.506;2023-03-19T09:26:16;101462.50;;;16.32;54.74
70248;BME280;57641;51.416;5.506;2023-03-19T09:28:42;101469.13;;;16.53;54.56
70248;BME280;57641;51.416;5.506;2023-03-19T09:31:11;101467.50;;;16.43;54.87
70248;BME280;57641;51.416;5.506;2023-03-19T09:33:36;101464.22;;;16.25;55.00
70248;BME280;57641;51.416;5.506;2023-03-19T09:36:03;101474.59;;;16.36;54.71
70248;BME280;57641;51.416;5.506;2023-03-19T09:38:29;101471.34;;;16.49;54.65
70248;BME280;57641;51.416;5.506;2023-03-19T09:46:12;101481.44;;;16.08;55.31
70248;BME280;57641;51.416;5.506;2023-03-19T09:48:55;101474.97;;;16.25;54.42
70248;BME280;57641;51.416;5.506;2023-03-19T09:51:28;101482.06;;;16.65;53.92
70248;BME280;57641;51.416;5.506;2023-03-19T09:54:03;101483.00;;;16.72;53.81
70248;BME280;57641;51.416;5.506;2023-03-19T09:56:36;101472.84;;;16.82;52.97
70248;BME280;57641;51.416;5.506;2023-03-19T09:59:02;101487.69;;;16.78;54.22
70248;BME280;57641;51.416;5.506;2023-03-19T10:01:32;101484.88;;;16.95;54.18
70248;BME280;57641;51.416;5.506;2023-03-19T10:04:06;101480.97;;;17.20;52.71
70248;BME280;57641;51.416;5.506;2023-03-19T10:06:37;101482.50;;;17.37;53.33
70248;BME280;57641;51.416;5.506;2023-03-19T10:14:55;101483.41;;;17.29;52.01
70248;BME280;57641;51.416;5.506;2023-03-19T10:17:32;101489.94;;;17.35;52.68
70248;BME280;57641;51.416;5.506;2023-03-19T10:20:08;101486.47;;;17.49;52.49
70248;BME280;57641;51.416;5.506;2023-03-19T10:22:37;101487.50;;;17.25;52.03
70248;BME280;57641;51.416;5.506;2023-03-19T10:25:09;101480.41;;;17.47;52.14
70248;BME280;57641;51.416;5.506;2023-03-19T10:27:37;101490.63;;;17.75;51.36
70248;BME280;57641;51.416;5.506;2023-03-19T10:30:30;101491.59;;;17.59;50.29
70248;BME280;57641;51.416;5.506;2023-03-19T10:33:24;101494.63;;;17.18;50.08
70248;BME280;57641;51.416;5.506;2023-03-19T10:36:03;101496.56;;;17.47;49.33
70248;BME280;57641;51.416;5.506;2023-03-19T10:38:30;101495.16;;;17.59;50.19
70248;BME280;57641;51.416;5.506;2023-03-19T10:43:30;101498.59;;;17.83;49.05
70248;BME280;57641;51.416;5.506;2023-03-19T10:45:56;101501.75;;;17.71;48.29
70248;BME280;57641;51.416;5.506;2023-03-19T10:48:24;101498.44;;;17.84;47.74
70248;BME280;57641;51.416;5.506;2023-03-19T10:50:59;101499.53;;;17.60;48.24
70248;BME280;57641;51.416;5.506;2023-03-19T10:53:34;101493.31;;;17.75;49.43
70248;BME280;57641;51.416;5.506;2023-03-19T10:56:09;101493.97;;;17.91;49.80
70248;BME280;57641;51.416;5.506;2023-03-19T10:58:55;101486.88;;;18.20;48.55
70248;BME280;57641;51.416;5.506;2023-03-19T11:01:27;101502.22;;;18.48;48.12
70248;BME280;57641;51.416;5.506;2023-03-19T11:03:58;101503.13;;;18.70;47.99
70248;BME280;57641;51.416;5.506;2023-03-19T11:06:25;101504.84;;;18.56;47.57
70248;BME280;57641;51.416;5.506;2023-03-19T11:09:25;101505.44;;;18.73;46.80
70248;BME280;57641;51.416;5.506;2023-03-19T11:11:49;101499.47;;;18.78;47.01
70248;BME280;57641;51.416;5.506;2023-03-19T11:14:24;101514.47;;;18.80;46.59
70248;BME280;57641;51.416;5.506;2023-03-19T11:17:05;101506.16;;;18.61;47.04
70248;BME280;57641;51.416;5.506;2023-03-19T11:19:42;101506.97;;;18.46;47.68
70248;BME280;57641;51.416;5.506;2023-03-19T11:22:20;101513.03;;;18.48;46.49
70248;BME280;57641;51.416;5.506;2023-03-19T11:25:00;101509.88;;;18.45;46.87
70248;BME280;57641;51.416;5.506;2023-03-19T11:27:35;101515.72;;;18.19;47.00
70248;BME280;57641;51.416;5.506;2023-03-19T11:30:11;101510.59;;;18.53;46.25
70248;BME280;57641;51.416;5.506;2023-03-19T11:35:46;101511.72;;;18.59;46.98
70248;BME280;57641;51.416;5.506;2023-03-19T11:38:27;101509.06;;;18.80;46.44
70248;BME280;57641;51.416;5.506;2023-03-19T11:41:18;101513.16;;;18.55;47.27
70248;BME280;57641;51.416;5.506;2023-03-19T11:43:54;101516.56;;;18.64;46.81
70248;BME280;57641;51.416;5.506;2023-03-19T12:15:41;101518.38;;;18.12;51.09
70248;BME280;57641;51.416;5.506;2023-03-19T12:23:50;101524.41;;;18.29;49.86
70248;BME280;57641;51.416;5.506;2023-03-19T12:26:41;101523.09;;;18.10;50.26
70248;BME280;57641;51.416;5.506;2023-03-19T12:29:26;101516.84;;;18.25;50.03
70248;BME280;57641;51.416;5.506;2023-03-19T12:43:03;101526.34;;;18.21;49.57
70248;BME280;57641;51.416;5.506;2023-03-19T12:45:41;101524.41;;;18.29;49.06
70248;BME280;57641;51.416;5.506;2023-03-19T12:48:19;101518.72;;;18.24;48.88
70248;BME280;57641;51.416;5.506;2023-03-19T12:50:49;101516.59;;;18.34;48.77
70248;BME280;57641;51.416;5.506;2023-03-19T12:53:27;101533.06;;;18.54;48.73
70248;BME280;57641;51.416;5.506;2023-03-19T12:56:04;101523.34;;;18.74;47.40
70248;BME280;57641;51.416;5.506;2023-03-19T12:58:55;101526.69;;;18.62;47.60
70248;BME280;57641;51.416;5.506;2023-03-19T13:01:41;101520.94;;;18.50;48.04
70248;BME280;57641;51.416;5.506;2023-03-19T13:04:20;101527.53;;;18.62;48.49
70248;BME280;57641;51.416;5.506;2023-03-19T13:07:01;101531.00;;;18.71;48.27
70248;BME280;57641;51.416;5.506;2023-03-19T13:09:33;101536.72;;;18.82;47.98
70248;BME280;57641;51.416;5.506;2023-03-19T13:12:22;101531.16;;;19.05;47.27
70248;BME280;57641;51.416;5.506;2023-03-19T13:22:48;101526.59;;;19.27;45.14
70248;BME280;57641;51.416;5.506;2023-03-19T13:25:21;101535.16;;;19.30;44.66
70248;BME280;57641;51.416;5.506;2023-03-19T13:27:52;101531.66;;;19.36;45.84
70248;BME280;57641;51.416;5.506;2023-03-19T13:30:20;101540.97;;;19.49;45.95
70248;BME280;57641;51.416;5.506;2023-03-19T13:36:06;101542.13;;;18.82;47.22
70248;BME280;57641;51.416;5.506;2023-03-19T13:38:48;101543.81;;;19.05;47.64
70248;BME280;57641;51.416;5.506;2023-03-19T14:03:21;101557.16;;;19.06;46.70
70248;BME280;57641;51.416;5.506;2023-03-19T14:05:50;101557.41;;;19.11;47.33
70248;BME280;57641;51.416;5.506;2023-03-19T14:08:20;101560.97;;;19.12;47.28
70248;BME280;57641;51.416;5.506;2023-03-19T14:10:52;101564.44;;;19.06;47.48
70248;BME280;57641;51.416;5.506;2023-03-19T14:19:10;101559.06;;;18.91;47.16
70248;BME280;57641;51.416;5.506;2023-03-19T14:21:42;101560.19;;;19.18;47.21
70248;BME280;57641;51.416;5.506;2023-03-19T14:27:19;101559.94;;;19.34;45.77
70248;BME280;57641;51.416;5.506;2023-03-19T14:29:47;101560.94;;;19.48;45.15
70248;BME280;57641;51.416;5.506;2023-03-19T14:32:20;101559.63;;;19.44;44.86
70248;BME280;57641;51.416;5.506;2023-03-19T14:34:49;101552.44;;;19.51;45.35
70248;BME280;57641;51.416;5.506;2023-03-19T14:45:39;101551.69;;;19.42;45.08
70248;BME280;57641;51.416;5.506;2023-03-19T14:48:19;101556.88;;;19.58;44.50
70248;BME280;57641;51.416;5.506;2023-03-19T14:53:47;101557.47;;;19.54;44.95
70248;BME280;57641;51.416;5.506;2023-03-19T14:56:19;101559.63;;;19.65;44.82